createdAt,value
2019-05-06T00:01:54.115Z,9.70
2019-05-06T00:04:24.754Z,9.70
2019-05-06T00:06:54.809Z,9.80
2019-05-06T00:09:24.751Z,9.80
2019-05-06T00:11:54.616Z,9.70
2019-05-06T00:14:24.119Z,9.70
2019-05-06T00:16:54.753Z,9.70
2019-05-06T00:19:24.848Z,9.70
2019-05-06T00:21:54.296Z,9.60
2019-05-06T00:24:25.514Z,9.60
2019-05-06T00:27:14.877Z,9.60
2019-05-06T00:29:46.820Z,9.60
2019-05-06T00:32:15.260Z,9.60
2019-05-06T00:34:44.613Z,9.60
2019-05-06T00:37:14.588Z,9.50
2019-05-06T00:40:04.642Z,9.50
2019-05-06T00:42:40.636Z,9.50
2019-05-06T00:45:10.239Z,9.50
2019-05-06T00:47:39.631Z,9.50
2019-05-06T00:50:10.445Z,9.50
2019-05-06T00:52:39.880Z,9.50
2019-05-06T00:55:09.384Z,9.50
2019-05-06T00:57:44.712Z,9.50
2019-05-06T01:00:19.681Z,9.50
2019-05-06T01:02:49.105Z,9.50
2019-05-06T01:05:18.709Z,9.50
2019-05-06T01:07:48.263Z,9.50
2019-05-06T01:10:18.237Z,9.50
2019-05-06T01:12:56.967Z,9.50
2019-05-06T01:15:27.888Z,9.50
2019-05-06T01:17:57.241Z,9.50
2019-05-06T01:20:26.564Z,9.50
2019-05-06T01:22:56.077Z,9.50
2019-05-06T01:25:25.382Z,9.50
2019-05-06T01:27:54.763Z,9.50
2019-05-06T01:30:24.746Z,9.50
2019-05-06T01:32:54.481Z,9.50
2019-05-06T01:35:24.521Z,9.50
2019-05-06T01:38:14.681Z,9.50
2019-05-06T01:41:04.006Z,9.50
2019-05-06T01:43:35.339Z,9.50
2019-05-06T01:46:06.399Z,9.50
2019-05-06T01:48:47.886Z,9.50
2019-05-06T01:51:18.828Z,9.50
2019-05-06T01:53:48.586Z,9.50
2019-05-06T01:56:18.428Z,9.50
2019-05-06T01:58:48.115Z,9.50
2019-05-06T02:01:17.561Z,9.50
2019-05-06T02:03:47.037Z,9.50
2019-05-06T02:06:16.348Z,9.50
2019-05-06T02:08:45.716Z,9.50
2019-05-06T02:11:15.121Z,9.50
2019-05-06T02:13:44.778Z,9.40
2019-05-06T02:16:15.322Z,9.40
2019-05-06T02:18:45.233Z,9.40
2019-05-06T02:21:33.723Z,9.40
2019-05-06T02:24:04.953Z,9.40
2019-05-06T02:26:34.473Z,9.40
2019-05-06T02:29:06.370Z,9.40
2019-05-06T02:32:24.491Z,9.40
2019-05-06T02:34:48.711Z,9.40
2019-05-06T02:37:38.804Z,9.40
2019-05-06T02:40:29.215Z,9.40
2019-05-06T02:42:58.669Z,9.40
2019-05-06T02:45:28.141Z,9.40
2019-05-06T02:48:14.419Z,9.40
2019-05-06T02:51:08.152Z,9.40
2019-05-06T02:53:37.632Z,9.40
2019-05-06T02:56:07.073Z,9.40
2019-05-06T02:58:36.788Z,9.50
2019-05-06T03:01:06.191Z,9.40
2019-05-06T03:03:35.591Z,9.50
2019-05-06T03:06:04.957Z,9.40
2019-05-06T03:08:34.680Z,9.40
2019-05-06T03:11:05.181Z,9.40
2019-05-06T03:13:34.596Z,9.40
2019-05-06T03:16:06.009Z,9.40
2019-05-06T03:18:35.233Z,9.40
2019-05-06T03:21:24.741Z,9.40
2019-05-06T03:23:59.823Z,9.40
2019-05-06T03:26:29.179Z,9.40
2019-05-06T03:28:58.513Z,9.40
2019-05-06T03:31:27.945Z,9.40
2019-05-06T03:34:17.771Z,9.40
2019-05-06T03:36:34.699Z,9.50
2019-05-06T03:39:02.837Z,9.40
2019-05-06T03:41:33.604Z,9.40
2019-05-06T03:44:03.266Z,9.40
2019-05-06T03:46:53.895Z,9.50
2019-05-06T03:49:23.974Z,9.50
2019-05-06T03:51:56.294Z,9.40
2019-05-06T03:54:24.465Z,9.40
2019-05-06T03:56:54.963Z,9.40
2019-05-06T03:59:25.195Z,9.50
2019-05-06T04:01:54.501Z,9.50
2019-05-06T04:04:23.969Z,9.40
2019-05-06T04:06:53.930Z,9.40
2019-05-06T04:09:24.067Z,9.40
2019-05-06T04:11:54.312Z,9.50
2019-05-06T04:14:23.992Z,9.50
2019-05-06T04:17:03.257Z,9.40
2019-05-06T04:19:45.414Z,9.40
2019-05-06T04:22:36.642Z,9.40
2019-05-06T04:25:29.364Z,9.50
2019-05-06T04:28:04.416Z,9.40
2019-05-06T04:30:33.817Z,9.50
2019-05-06T04:33:03.585Z,9.50
2019-05-06T04:35:33.751Z,9.50
2019-05-06T04:38:03.591Z,9.50
2019-05-06T04:40:33.262Z,9.50
2019-05-06T04:43:03.575Z,9.60
2019-05-06T04:45:33.898Z,9.50
2019-05-06T04:48:03.776Z,9.50
2019-05-06T04:50:33.458Z,9.50
2019-05-06T04:53:04.579Z,9.50
2019-05-06T04:55:35.112Z,9.60
2019-05-06T04:58:05.524Z,9.60
2019-05-06T05:00:35.580Z,9.50
2019-05-06T05:03:05.143Z,9.50
2019-05-06T05:05:34.971Z,9.60
2019-05-06T05:08:04.382Z,9.50
2019-05-06T05:10:42.992Z,9.60
2019-05-06T05:13:22.976Z,9.60
2019-05-06T05:16:16.290Z,9.50
2019-05-06T05:18:58.939Z,9.60
2019-05-06T05:21:28.582Z,9.60
2019-05-06T05:23:58.322Z,9.60
2019-05-06T05:26:27.884Z,9.60
2019-05-06T05:28:57.319Z,9.70
2019-05-06T05:31:26.628Z,9.70
2019-05-06T05:33:56.107Z,9.80
2019-05-06T05:36:25.882Z,9.80
2019-05-06T05:38:55.222Z,9.80
2019-05-06T05:41:24.756Z,9.90
2019-05-06T05:44:08.884Z,9.90
2019-05-06T05:46:39.011Z,9.90
2019-05-06T05:49:24.615Z,9.90
2019-05-06T05:51:54.147Z,10.00
2019-05-06T05:54:23.511Z,10.00
2019-05-06T05:56:53.091Z,10.10
2019-05-06T05:59:23.230Z,10.10
2019-05-06T06:01:53.695Z,10.10
2019-05-06T06:04:23.685Z,10.20
2019-05-06T06:06:53.197Z,10.30
2019-05-06T06:09:25.323Z,10.30
2019-05-06T06:11:57.284Z,10.20
2019-05-06T06:14:56.151Z,10.30
2019-05-06T06:17:42.693Z,10.40
2019-05-06T06:20:29.492Z,10.40
2019-05-06T06:23:03.430Z,10.50
2019-05-06T06:25:33.558Z,10.50
2019-05-06T06:28:05.016Z,10.40
2019-05-06T06:30:47.468Z,10.50
2019-05-06T06:33:18.162Z,10.50
2019-05-06T06:35:55.619Z,10.50
2019-05-06T06:38:43.889Z,10.60
2019-05-06T06:41:13.391Z,10.60
2019-05-06T06:43:44.084Z,10.60
2019-05-06T06:46:13.492Z,10.70
2019-05-06T06:48:43.682Z,10.70
2019-05-06T06:51:13.042Z,10.70
2019-05-06T06:53:42.694Z,10.80
2019-05-06T06:56:33.156Z,10.80
2019-05-06T06:59:19.420Z,10.90
2019-05-06T07:02:02.708Z,11.00
2019-05-06T07:04:40.291Z,11.10
2019-05-06T07:07:12.770Z,11.20
2019-05-06T07:09:41.901Z,11.30
2019-05-06T07:12:13.222Z,11.40
2019-05-06T07:14:42.918Z,11.60
2019-05-06T07:17:13.605Z,11.70
2019-05-06T07:19:48.799Z,11.90
2019-05-06T07:22:18.156Z,12.00
2019-05-06T07:24:47.608Z,12.10
2019-05-06T07:27:22.858Z,12.20
2019-05-06T07:29:52.490Z,12.40
2019-05-06T07:32:23.197Z,12.50
2019-05-06T07:34:53.301Z,12.60
2019-05-06T07:37:22.661Z,12.80
2019-05-06T07:39:53.059Z,12.80
2019-05-06T07:42:28.578Z,12.90
2019-05-06T07:45:16.967Z,12.90
2019-05-06T07:47:53.138Z,13.00
2019-05-06T07:50:23.509Z,13.10
2019-05-06T07:53:08.898Z,13.10
2019-05-06T07:55:42.213Z,13.10
2019-05-06T07:58:10.802Z,13.20
2019-05-06T08:00:42.303Z,13.20
2019-05-06T08:03:13.982Z,13.30
2019-05-06T08:05:58.369Z,13.30
2019-05-06T08:08:25.769Z,13.30
2019-05-06T08:10:55.141Z,13.30
2019-05-06T08:13:25.018Z,13.40
2019-05-06T08:15:55.285Z,13.40
2019-05-06T08:18:24.716Z,13.40
2019-05-06T08:20:54.152Z,13.40
2019-05-06T08:23:38.897Z,13.40
2019-05-06T08:26:13.031Z,13.40
2019-05-06T08:28:41.601Z,13.40
2019-05-06T08:31:12.812Z,13.40
2019-05-06T08:33:43.160Z,13.50
2019-05-06T08:36:17.828Z,13.60
2019-05-06T08:38:56.744Z,13.60
2019-05-06T08:41:28.002Z,13.60
2019-05-06T08:43:57.427Z,13.60
2019-05-06T08:46:26.857Z,13.60
2019-05-06T08:48:56.283Z,13.60
2019-05-06T08:51:35.392Z,13.60
2019-05-06T08:54:09.624Z,13.70
2019-05-06T08:56:39.113Z,13.70
2019-05-06T08:59:08.495Z,13.80
2019-05-06T09:01:45.858Z,13.80
2019-05-06T09:04:16.241Z,13.90
2019-05-06T09:06:46.948Z,13.90
2019-05-06T09:09:16.552Z,14.00
2019-05-06T09:11:45.908Z,14.10
2019-05-06T09:14:15.365Z,14.10
2019-05-06T09:16:44.714Z,14.20
2019-05-06T09:19:15.345Z,14.30
2019-05-06T09:21:46.362Z,14.30
2019-05-06T09:24:17.680Z,14.40
2019-05-06T09:26:52.337Z,14.40
2019-05-06T09:29:34.390Z,14.50
2019-05-06T09:32:08.395Z,14.60
2019-05-06T09:34:44.144Z,14.60
2019-05-06T09:37:14.613Z,14.70
2019-05-06T09:39:48.135Z,14.70
2019-05-06T09:42:18.628Z,14.80
2019-05-06T09:44:50.646Z,14.90
2019-05-06T09:47:47.671Z,15.00
2019-05-06T09:50:22.973Z,15.10
2019-05-06T09:52:52.867Z,15.30
2019-05-06T09:55:37.544Z,15.30
2019-05-06T09:58:08.060Z,15.40
2019-05-06T10:00:42.956Z,15.50
2019-05-06T10:03:13.890Z,15.50
2019-05-06T10:05:44.512Z,15.40
2019-05-06T10:08:14.561Z,15.40
2019-05-06T10:10:55.946Z,15.50
2019-05-06T10:13:15.432Z,15.50
2019-05-06T10:15:44.820Z,15.50
2019-05-06T10:18:14.203Z,15.60
2019-05-06T10:20:45.686Z,15.60
2019-05-06T10:23:17.858Z,15.60
2019-05-06T10:25:47.289Z,15.70
2019-05-06T10:28:38.583Z,15.80
2019-05-06T10:31:12.576Z,15.80
2019-05-06T10:34:02.829Z,15.80
2019-05-06T10:37:11.274Z,15.90
2019-05-06T10:39:30.428Z,15.90
2019-05-06T10:42:13.577Z,15.90
2019-05-06T10:45:04.060Z,15.80
2019-05-06T10:47:33.434Z,15.80
2019-05-06T10:50:04.724Z,15.70
2019-05-06T10:52:55.780Z,15.60
2019-05-06T10:55:25.181Z,15.60
2019-05-06T10:57:55.726Z,15.40
2019-05-06T11:00:25.569Z,15.30
2019-05-06T11:03:22.643Z,15.30
2019-05-06T11:05:53.484Z,15.20
2019-05-06T11:08:23.142Z,15.10
2019-05-06T11:10:54.331Z,15.10
2019-05-06T11:13:24.616Z,15.00
2019-05-06T11:15:55.605Z,15.00
2019-05-06T11:18:25.227Z,15.10
2019-05-06T11:20:56.222Z,15.00
2019-05-06T11:23:26.037Z,15.10
2019-05-06T11:25:56.942Z,15.10
2019-05-06T11:28:47.844Z,15.00
2019-05-06T11:31:34.904Z,15.00
2019-05-06T11:34:26.000Z,15.10
2019-05-06T11:37:15.021Z,15.00
2019-05-06T11:39:44.139Z,15.00
2019-05-06T11:42:28.123Z,14.90
2019-05-06T11:44:44.560Z,14.90
2019-05-06T11:47:14.056Z,15.00
2019-05-06T11:49:44.250Z,14.90
2019-05-06T11:52:13.814Z,14.90
2019-05-06T11:54:43.672Z,14.90
2019-05-06T11:57:13.084Z,14.90
2019-05-06T11:59:43.276Z,14.90
2019-05-06T12:02:16.568Z,14.90
2019-05-06T12:04:45.948Z,14.80
2019-05-06T12:07:16.088Z,14.90
2019-05-06T12:09:45.949Z,14.90
2019-05-06T12:12:16.009Z,14.90
2019-05-06T12:14:45.456Z,15.00
2019-05-06T12:17:15.038Z,14.90
2019-05-06T12:19:44.463Z,15.00
2019-05-06T12:22:15.182Z,15.00
2019-05-06T12:24:44.771Z,14.90
2019-05-06T12:27:33.077Z,15.00
2019-05-06T12:30:05.330Z,15.00
2019-05-06T12:32:43.315Z,15.00
2019-05-06T12:35:13.409Z,15.00
2019-05-06T12:37:45.275Z,15.00
2019-05-06T12:40:14.782Z,15.10
2019-05-06T12:42:48.629Z,15.00
2019-05-06T12:45:37.304Z,15.10
2019-05-06T12:48:26.912Z,15.10
2019-05-06T12:50:58.062Z,15.10
2019-05-06T12:53:27.398Z,15.10
2019-05-06T12:55:56.890Z,15.10
2019-05-06T12:58:26.475Z,15.10
2019-05-06T13:00:55.817Z,15.10
2019-05-06T13:03:25.282Z,15.10
2019-05-06T13:05:54.909Z,15.10
2019-05-06T13:08:32.439Z,15.10
2019-05-06T13:10:57.465Z,15.10
2019-05-06T13:13:27.285Z,15.10
2019-05-06T13:15:56.817Z,15.10
2019-05-06T13:18:26.629Z,15.10
2019-05-06T13:20:56.221Z,15.10
2019-05-06T13:23:35.137Z,15.10
2019-05-06T13:26:06.612Z,15.00
2019-05-06T13:28:38.648Z,15.10
2019-05-06T13:31:17.205Z,15.10
2019-05-06T13:33:54.158Z,15.10
2019-05-06T13:36:22.936Z,15.10
2019-05-06T13:39:09.176Z,15.10
2019-05-06T13:41:23.651Z,15.10
2019-05-06T13:44:02.577Z,15.10
2019-05-06T13:46:34.789Z,15.10
2019-05-06T13:49:22.729Z,15.20
2019-05-06T13:52:01.029Z,15.10
2019-05-06T13:54:29.542Z,15.20
2019-05-06T13:56:59.044Z,15.10
2019-05-06T13:59:30.476Z,15.20
2019-05-06T14:02:21.116Z,15.20
2019-05-06T14:04:52.671Z,15.20
2019-05-06T14:07:24.415Z,15.20
2019-05-06T14:09:53.527Z,15.20
2019-05-06T14:12:23.027Z,15.30
2019-05-06T14:15:04.598Z,15.30
2019-05-06T14:17:34.104Z,15.30
2019-05-06T14:20:03.480Z,15.30
2019-05-06T14:22:32.845Z,15.30
2019-05-06T14:25:32.915Z,15.30
2019-05-06T14:28:12.458Z,15.40
2019-05-06T14:31:02.774Z,15.40
2019-05-06T14:33:32.299Z,15.40
2019-05-06T14:36:03.236Z,15.50
2019-05-06T14:38:33.236Z,15.60
2019-05-06T14:41:08.645Z,15.70
2019-05-06T14:43:38.062Z,15.80
2019-05-06T14:46:07.584Z,15.80
2019-05-06T14:48:36.957Z,15.90
2019-05-06T14:51:06.443Z,15.90
2019-05-06T14:53:35.789Z,15.90
2019-05-06T14:56:12.990Z,15.90
2019-05-06T14:58:44.521Z,15.90
2019-05-06T15:01:14.119Z,15.90
2019-05-06T15:03:43.550Z,15.80
2019-05-06T15:06:13.121Z,15.80
2019-05-06T15:08:42.854Z,15.80
2019-05-06T15:11:13.638Z,15.80
2019-05-06T15:13:44.210Z,15.80
2019-05-06T15:16:14.101Z,15.70
2019-05-06T15:18:43.576Z,15.70
2019-05-06T15:21:36.259Z,15.60
2019-05-06T15:23:44.220Z,15.50
2019-05-06T15:26:13.605Z,15.50
2019-05-06T15:28:43.075Z,15.50
2019-05-06T15:31:25.106Z,15.40
2019-05-06T15:33:55.669Z,15.40
2019-05-06T15:39:13.224Z,15.30
2019-05-06T15:41:44.272Z,15.30
2019-05-06T15:44:13.625Z,15.20
2019-05-06T15:46:43.139Z,15.20
2019-05-06T15:49:12.573Z,15.10
2019-05-06T15:51:42.798Z,15.10
2019-05-06T15:54:12.315Z,15.10
2019-05-06T15:56:42.334Z,15.10
2019-05-06T15:59:12.898Z,15.00
2019-05-06T16:01:43.746Z,15.00
2019-05-06T16:04:13.149Z,15.00
2019-05-06T16:06:44.746Z,15.00
2019-05-06T16:09:14.440Z,15.00
2019-05-06T16:11:44.680Z,15.00
2019-05-06T16:14:15.708Z,14.90
2019-05-06T16:16:45.670Z,14.90
2019-05-06T16:19:15.390Z,14.90
2019-05-06T16:21:45.253Z,14.90
2019-05-06T16:24:19.586Z,14.90
2019-05-06T16:26:48.913Z,14.90
2019-05-06T16:29:22.380Z,14.90
2019-05-06T16:31:51.933Z,14.90
2019-05-06T16:34:22.783Z,14.90
2019-05-06T16:36:52.289Z,14.80
2019-05-06T16:39:22.998Z,14.80
2019-05-06T16:41:52.784Z,14.80
2019-05-06T16:44:22.099Z,14.70
2019-05-06T16:46:52.071Z,14.70
2019-05-06T16:49:23.089Z,14.70
2019-05-06T16:51:52.762Z,14.70
2019-05-06T16:54:22.782Z,14.70
2019-05-06T16:57:03.117Z,14.70
2019-05-06T16:59:33.556Z,14.60
2019-05-06T17:02:08.232Z,14.60
2019-05-06T17:04:45.816Z,14.60
2019-05-06T17:07:15.260Z,14.60
2019-05-06T17:09:45.092Z,14.60
2019-05-06T17:12:14.943Z,14.60
2019-05-06T17:14:44.378Z,14.60
2019-05-06T17:17:13.788Z,14.60
2019-05-06T17:19:43.800Z,14.60
2019-05-06T17:22:13.151Z,14.60
2019-05-06T17:24:42.622Z,14.60
2019-05-06T17:27:12.243Z,14.60
2019-05-06T17:30:12.819Z,14.50
2019-05-06T17:32:48.578Z,14.50
2019-05-06T17:35:18.000Z,14.50
2019-05-06T17:38:05.347Z,14.50
2019-05-06T17:40:36.132Z,14.50
2019-05-06T17:43:05.621Z,14.50
2019-05-06T17:45:57.943Z,14.60
2019-05-06T17:48:49.398Z,14.70
2019-05-06T17:51:30.376Z,14.60
2019-05-06T17:54:18.931Z,14.70
2019-05-06T17:56:48.452Z,14.60
2019-05-06T17:59:17.873Z,14.60
2019-05-06T18:01:53.038Z,14.70
2019-05-06T18:04:23.473Z,14.70
2019-05-06T18:06:52.787Z,14.60
2019-05-06T18:09:22.408Z,14.60
2019-05-06T18:11:58.760Z,14.60
2019-05-06T18:14:23.443Z,14.60
2019-05-06T18:16:53.775Z,14.50
2019-05-06T18:19:24.626Z,14.50
2019-05-06T18:21:54.337Z,14.50
2019-05-06T18:24:23.806Z,14.50
2019-05-06T18:26:53.280Z,14.50
2019-05-06T18:29:22.733Z,14.50
2019-05-06T18:31:52.577Z,14.50
2019-05-06T18:34:25.436Z,14.50
2019-05-06T18:36:54.805Z,14.50
2019-05-06T18:39:24.170Z,14.50
2019-05-06T18:41:53.585Z,14.40
2019-05-06T18:44:24.318Z,14.40
2019-05-06T18:46:53.667Z,14.30
2019-05-06T18:49:24.236Z,14.30
2019-05-06T18:51:54.276Z,14.20
2019-05-06T18:54:25.762Z,14.20
2019-05-06T18:56:56.136Z,14.30
2019-05-06T18:59:25.630Z,14.30
2019-05-06T19:01:54.968Z,14.20
2019-05-06T19:04:58.495Z,14.30
2019-05-06T19:07:27.960Z,14.20
2019-05-06T19:10:07.121Z,14.20
2019-05-06T19:12:41.041Z,14.20
2019-05-06T19:15:08.093Z,14.10
2019-05-06T19:17:37.569Z,14.20
2019-05-06T19:20:07.752Z,14.20
2019-05-06T19:22:37.854Z,14.20
2019-05-06T19:25:10.480Z,14.20
2019-05-06T19:27:41.541Z,14.10
2019-05-06T19:30:12.934Z,14.10
2019-05-06T19:32:43.401Z,14.10
2019-05-06T19:35:13.854Z,14.10
2019-05-06T19:37:43.236Z,14.10
2019-05-06T19:40:13.024Z,14.10
2019-05-06T19:42:49.652Z,14.10
2019-05-06T19:45:15.513Z,14.10
2019-05-06T19:47:44.961Z,14.00
2019-05-06T19:50:14.603Z,14.00
2019-05-06T19:52:44.066Z,14.00
2019-05-06T19:55:13.587Z,14.00
2019-05-06T19:57:43.180Z,14.00
2019-05-06T20:00:12.708Z,13.90
2019-05-06T20:02:42.994Z,13.90
2019-05-06T20:08:16.776Z,13.90
2019-05-06T20:13:40.795Z,13.80
2019-05-06T20:16:12.327Z,13.80
2019-05-06T20:18:42.573Z,13.80
2019-05-06T20:21:12.190Z,13.80
2019-05-06T20:23:43.895Z,13.80
2019-05-06T20:26:13.239Z,13.80
2019-05-06T20:28:43.077Z,13.80
2019-05-06T20:31:12.572Z,13.80
2019-05-06T20:33:42.247Z,13.80
2019-05-06T20:36:12.607Z,13.80
2019-05-06T20:38:42.403Z,13.80
2019-05-06T20:41:12.609Z,13.80
2019-05-06T20:43:43.867Z,13.80
2019-05-06T20:46:13.363Z,13.80
2019-05-06T20:48:42.971Z,13.90
2019-05-06T20:51:12.460Z,13.90
2019-05-06T20:53:43.175Z,13.90
2019-05-06T20:56:12.717Z,13.90
2019-05-06T20:58:42.761Z,13.90
2019-05-06T21:01:12.175Z,13.90
2019-05-06T21:03:42.384Z,14.00
2019-05-06T21:06:13.217Z,14.00
2019-05-06T21:08:43.049Z,14.00
2019-05-06T21:11:25.692Z,14.00
2019-05-06T21:13:43.878Z,13.90
2019-05-06T21:16:13.284Z,13.90
2019-05-06T21:18:42.657Z,14.00
2019-05-06T21:21:13.662Z,14.00
2019-05-06T21:23:43.209Z,13.90
2019-05-06T21:26:13.680Z,14.00
2019-05-06T21:28:46.279Z,14.00
2019-05-06T21:31:14.752Z,14.00
2019-05-06T21:33:44.145Z,13.90
2019-05-06T21:36:14.627Z,13.90
2019-05-06T21:38:44.027Z,13.90
2019-05-06T21:41:13.368Z,13.90
2019-05-06T21:43:49.511Z,13.90
2019-05-06T21:46:13.970Z,13.80
2019-05-06T21:48:43.425Z,13.90
2019-05-06T21:51:13.273Z,13.90
2019-05-06T21:53:42.722Z,13.90
2019-05-06T21:56:13.050Z,13.90
2019-05-06T21:58:42.913Z,13.90
2019-05-06T22:01:12.837Z,13.90
2019-05-06T22:03:43.339Z,13.90
2019-05-06T22:06:13.103Z,13.80
2019-05-06T22:08:43.850Z,13.80
2019-05-06T22:11:13.250Z,13.80
2019-05-06T22:13:42.774Z,13.80
2019-05-06T22:16:12.616Z,13.80
2019-05-06T22:18:43.280Z,13.80
2019-05-06T22:21:32.062Z,13.80
2019-05-06T22:24:04.736Z,13.80
2019-05-06T22:26:34.092Z,13.80
2019-05-06T22:29:04.154Z,13.80
2019-05-06T22:31:33.569Z,13.90
2019-05-06T22:34:03.019Z,13.80
2019-05-06T22:36:32.508Z,13.90
2019-05-06T22:39:02.528Z,14.00
2019-05-06T22:41:32.695Z,14.00
2019-05-06T22:44:13.022Z,14.10
2019-05-06T22:46:33.745Z,14.10
2019-05-06T22:49:03.166Z,14.10
2019-05-06T22:51:32.746Z,14.00
2019-05-06T22:54:02.847Z,14.00
2019-05-06T22:56:32.585Z,14.00
2019-05-06T22:59:03.318Z,13.90
2019-05-06T23:01:54.267Z,13.90
2019-05-06T23:04:24.107Z,13.90
2019-05-06T23:06:53.860Z,13.80
2019-05-06T23:09:24.936Z,13.80
2019-05-06T23:11:54.352Z,13.80
2019-05-06T23:14:31.162Z,13.80
2019-05-06T23:16:56.088Z,13.80
2019-05-06T23:19:25.532Z,13.70
2019-05-06T23:21:56.699Z,13.70
2019-05-06T23:24:26.088Z,13.70
2019-05-06T23:26:55.481Z,13.70
2019-05-06T23:29:25.278Z,13.70
2019-05-06T23:31:54.626Z,13.60
2019-05-06T23:34:23.989Z,13.60
2019-05-06T23:37:27.261Z,13.60
2019-05-06T23:40:38.358Z,13.60
2019-05-06T23:43:43.897Z,13.50
2019-05-06T23:46:49.841Z,13.50
2019-05-06T23:49:55.462Z,13.40
2019-05-06T23:53:02.812Z,13.40
2019-05-06T23:56:07.850Z,13.40
2019-05-06T23:58:37.367Z,13.30
